Time;durP1;ratioP1;P1;durP2;ratioP2;P2;SDS_P1;SDS_P2;PMS_P1;PMS_P2;Temp;Humidity;BMP_temperature;BMP_pressure;BME280_temperature;BME280_humidity;BME280_pressure;Samples;Min_cycle;Max_cycle;Signal;HPM_P1;HPM_P2
2023/06/17 00:02:07;;;;;;;16.63;11.87;;;13.40;94.60;;;;;;5046624;28;20379;-66
2023/06/17 00:04:33;;;;;;;15.27;13.67;;;13.40;95.40;;;;;;5045481;28;20083;-66
2023/06/17 00:06:58;;;;;;;15.77;14.00;;;13.40;95.20;;;;;;5046763;28;20477;-66
2023/06/17 00:09:25;;;;;;;18.60;12.83;;;13.40;94.70;;;;;;5046874;28;20476;-66
2023/06/17 00:11:52;;;;;;;15.20;12.27;;;13.30;94.60;;;;;;5043896;28;20475;-66
2023/06/17 00:14:20;;;;;;;13.47;11.83;;;13.20;95.00;;;;;;5047417;28;20287;-66
2023/06/17 00:16:47;;;;;;;15.23;12.80;;;13.10;94.90;;;;;;5030963;28;20315;-66
2023/06/17 00:19:16;;;;;;;13.93;12.43;;;13.10;95.30;;;;;;5046270;28;20523;-66
2023/06/17 00:21:49;;;;;;;15.00;13.40;;;13.00;95.20;;;;;;5047388;28;20048;-66
2023/06/17 00:24:16;;;;;;;14.95;11.77;;;13.00;95.70;;;;;;5050615;28;20060;-66
2023/06/17 00:26:41;;;;;;;12.40;11.00;;;13.00;95.40;;;;;;5049552;28;20056;-66
2023/06/17 00:29:08;;;;;;;18.77;13.60;;;13.00;94.80;;;;;;5064690;28;20048;-66
2023/06/17 00:31:33;;;;;;;13.90;11.80;;;12.90;95.70;;;;;;5068537;28;21596;-66
2023/06/17 00:34:00;;;;;;;16.63;12.20;;;13.00;96.60;;;;;;5056040;28;20040;-66
2023/06/17 00:36:26;;;;;;;15.85;13.27;;;13.00;96.10;;;;;;5051579;28;20037;-66
2023/06/17 00:38:52;;;;;;;12.82;11.30;;;13.00;96.30;;;;;;5051001;28;20080;-66
2023/06/17 00:41:18;;;;;;;16.30;12.85;;;13.00;96.70;;;;;;5051433;28;20037;-66
2023/06/17 00:43:44;;;;;;;15.03;13.17;;;13.00;97.40;;;;;;5051275;28;20580;-66
2023/06/17 00:46:24;;;;;;;17.07;11.33;;;13.00;97.80;;;;;;5031313;28;20379;-67
2023/06/17 00:48:50;;;;;;;15.67;12.33;;;13.00;97.70;;;;;;5051010;28;20087;-66
2023/06/17 00:51:16;;;;;;;13.30;9.93;;;13.00;98.00;;;;;;5034753;28;20685;-66
2023/06/17 00:53:42;;;;;;;12.00;9.70;;;12.90;98.30;;;;;;5051018;28;20045;-66
2023/06/17 00:56:07;;;;;;;10.80;9.73;;;12.90;98.40;;;;;;5034487;28;20132;-66
2023/06/17 00:58:35;;;;;;;10.00;8.23;;;12.90;98.30;;;;;;5050248;28;20052;-66
2023/06/17 01:01:01;;;;;;;12.38;9.90;;;12.80;97.60;;;;;;5050849;28;20120;-66
2023/06/17 01:03:29;;;;;;;13.77;11.63;;;12.70;98.20;;;;;;5025756;28;20256;-66
2023/06/17 01:05:59;;;;;;;14.57;11.25;;;12.70;98.30;;;;;;5034651;28;20543;-66
2023/06/17 01:08:44;;;;;;;15.80;11.43;;;12.70;98.40;;;;;;5050904;28;20041;-66
2023/06/17 01:11:21;;;;;;;14.57;11.15;;;12.60;98.90;;;;;;5050991;28;20647;-66
2023/06/17 01:13:51;;;;;;;14.87;10.30;;;12.60;98.70;;;;;;5050894;28;20048;-66
2023/06/17 01:16:17;;;;;;;14.63;10.60;;;12.60;98.40;;;;;;5050688;28;20283;-67
2023/06/17 01:18:48;;;;;;;15.98;12.35;;;12.50;98.40;;;;;;5067178;28;20029;-66
2023/06/17 01:21:17;;;;;;;14.07;11.48;;;12.60;98.90;;;;;;5047684;28;20037;-66
2023/06/17 01:23:44;;;;;;;15.77;11.60;;;12.60;98.20;;;;;;5048082;28;20128;-66
2023/06/17 01:26:10;;;;;;;14.27;12.02;;;12.50;98.60;;;;;;5050434;28;20287;-66
2023/06/17 01:28:40;;;;;;;15.30;12.50;;;12.50;99.00;;;;;;5049721;28;20078;-66
2023/06/17 01:31:07;;;;;;;14.23;12.83;;;12.50;99.90;;;;;;5050552;28;20139;-66
2023/06/17 01:33:34;;;;;;;15.02;11.68;;;12.50;99.90;;;;;;5033165;28;20338;-66
2023/06/17 01:36:04;;;;;;;17.85;13.00;;;12.50;99.90;;;;;;5050271;28;20033;-66
2023/06/17 01:38:51;;;;;;;16.13;12.05;;;12.50;99.90;;;;;;5049836;28;20036;-66
2023/06/17 01:41:29;;;;;;;18.52;11.43;;;12.50;99.90;;;;;;5058983;28;20040;-66
2023/06/17 01:43:57;;;;;;;39.63;11.32;;;12.40;99.90;;;;;;5049796;28;20170;-66
2023/06/17 01:46:24;;;;;;;29.63;10.55;;;12.30;99.90;;;;;;5065731;28;20040;-66
2023/06/17 01:48:53;;;;;;;9.77;8.77;;;12.30;99.90;;;;;;5049201;28;20120;-66
2023/06/17 01:51:19;;;;;;;51.88;9.85;;;12.20;99.90;;;;;;5061130;28;20503;-66
2023/06/17 01:53:46;;;;;;;8.73;7.82;;;12.10;99.90;;;;;;5049969;28;20198;-66
2023/06/17 01:56:11;;;;;;;9.52;7.78;;;12.10;99.90;;;;;;5045599;28;20117;-66
2023/06/17 01:58:38;;;;;;;9.93;7.50;;;12.00;99.90;;;;;;5047172;28;20103;-66
2023/06/17 02:01:04;;;;;;;11.95;8.98;;;12.00;99.90;;;;;;5066028;28;20714;-66
2023/06/17 02:03:30;;;;;;;10.07;7.93;;;11.90;99.90;;;;;;5047773;28;20045;-66
2023/06/17 02:05:55;;;;;;;9.27;8.10;;;11.90;99.90;;;;;;5047474;28;20115;-66
2023/06/17 02:08:25;;;;;;;9.23;8.07;;;11.90;99.70;;;;;;5047487;28;20311;-66
2023/06/17 02:10:51;;;;;;;9.27;8.32;;;11.90;99.40;;;;;;5064169;28;20255;-66
2023/06/17 02:13:17;;;;;;;11.33;8.87;;;11.90;99.40;;;;;;5031843;28;20120;-66
2023/06/17 02:15:42;;;;;;;12.40;10.17;;;12.00;99.30;;;;;;5047878;28;20084;-66
2023/06/17 02:18:09;;;;;;;10.43;9.13;;;12.10;99.50;;;;;;5049208;28;20040;-66
2023/06/17 02:20:35;;;;;;;11.85;10.65;;;12.20;99.90;;;;;;5046970;28;20032;-66
2023/06/17 02:23:01;;;;;;;12.97;11.67;;;12.40;99.90;;;;;;5065310;28;20087;-66
2023/06/17 02:25:27;;;;;;;11.83;10.73;;;12.50;99.90;;;;;;5046109;28;20041;-66
2023/06/17 02:27:53;;;;;;;12.30;10.82;;;12.60;99.90;;;;;;5049001;28;20427;-66
2023/06/17 02:30:19;;;;;;;12.07;10.87;;;12.70;99.90;;;;;;5045517;28;20064;-66
2023/06/17 02:32:44;;;;;;;14.27;11.80;;;12.70;99.90;;;;;;5048066;28;20028;-66
2023/06/17 02:35:10;;;;;;;11.87;10.67;;;12.80;99.90;;;;;;5048310;28;20431;-66
2023/06/17 02:37:37;;;;;;;13.10;11.20;;;12.80;99.90;;;;;;5048373;28;20101;-66
2023/06/17 02:40:08;;;;;;;11.48;10.27;;;12.90;99.90;;;;;;5047328;28;20049;-66
2023/06/17 02:42:35;;;;;;;12.07;10.87;;;13.00;99.90;;;;;;5045214;28;20075;-66
2023/06/17 02:45:01;;;;;;;11.07;9.83;;;13.00;99.90;;;;;;5045832;28;20706;-66
2023/06/17 02:47:27;;;;;;;10.77;9.67;;;13.10;99.90;;;;;;5048650;28;20286;-66
2023/06/17 02:49:52;;;;;;;10.27;9.27;;;13.20;99.90;;;;;;5048367;28;20045;-66
2023/06/17 02:52:18;;;;;;;11.90;9.87;;;13.20;99.90;;;;;;5048364;28;20044;-66
2023/06/17 02:54:44;;;;;;;11.23;9.93;;;13.30;99.90;;;;;;5048941;28;20532;-66
2023/06/17 02:57:10;;;;;;;14.57;12.63;;;13.40;99.90;;;;;;5044988;28;20045;-66
2023/06/17 02:59:37;;;;;;;12.47;10.70;;;13.50;99.90;;;;;;5031266;28;20103;-66
2023/06/17 03:02:04;;;;;;;13.33;11.07;;;13.60;99.90;;;;;;5031433;28;20287;-66
2023/06/17 03:04:35;;;;;;;14.43;11.60;;;13.60;99.90;;;;;;5059202;28;20284;-66
2023/06/17 03:07:04;;;;;;;14.77;12.10;;;13.70;99.90;;;;;;5047648;28;20310;-66
2023/06/17 03:09:30;;;;;;;15.53;13.37;;;13.80;99.90;;;;;;5047424;28;20334;-66
2023/06/17 03:11:58;;;;;;;15.77;13.00;;;13.80;99.90;;;;;;5047604;28;20311;-66
2023/06/17 03:14:24;;;;;;;14.30;12.47;;;13.90;99.90;;;;;;5046602;28;20052;-66
2023/06/17 03:16:50;;;;;;;19.20;15.47;;;14.00;99.90;;;;;;5031259;28;20283;-66
2023/06/17 03:19:16;;;;;;;21.43;16.83;;;14.00;99.90;;;;;;5047500;28;20831;-66
2023/06/17 03:21:42;;;;;;;25.40;19.33;;;14.10;99.90;;;;;;5047006;28;20049;-66
2023/06/17 03:24:08;;;;;;;23.67;18.63;;;14.10;99.90;;;;;;5046326;28;20040;-66
2023/06/17 03:26:34;;;;;;;23.13;16.73;;;14.20;99.90;;;;;;5026493;28;20299;-66
2023/06/17 03:29:01;;;;;;;24.53;17.40;;;14.30;99.90;;;;;;5046734;28;20303;-66
2023/06/17 03:31:28;;;;;;;24.80;17.47;;;14.30;99.90;;;;;;5030789;28;20441;-66
2023/06/17 03:33:54;;;;;;;26.90;17.30;;;14.40;99.90;;;;;;5044584;28;20630;-66
2023/06/17 03:36:24;;;;;;;22.77;16.50;;;14.50;99.90;;;;;;5047501;28;20282;-66
2023/06/17 03:38:50;;;;;;;21.60;17.60;;;14.50;99.90;;;;;;5046838;28;20124;-66
2023/06/17 03:41:16;;;;;;;28.10;17.17;;;14.60;99.90;;;;;;5047608;28;20283;-66
2023/06/17 03:43:42;;;;;;;23.77;16.10;;;14.60;99.90;;;;;;5047194;28;20291;-66
2023/06/17 03:46:07;;;;;;;22.40;17.30;;;14.70;99.90;;;;;;5046502;28;20047;-66
2023/06/17 03:48:33;;;;;;;24.33;16.77;;;14.70;99.90;;;;;;5046648;28;20045;-66
2023/06/17 03:51:00;;;;;;;25.73;17.40;;;14.80;99.90;;;;;;5031857;28;20037;-66
2023/06/17 03:53:26;;;;;;;23.53;17.67;;;14.80;99.90;;;;;;5051853;28;20519;-66
2023/06/17 03:55:52;;;;;;;25.67;18.43;;;14.80;99.90;;;;;;5050151;28;20727;-66
2023/06/17 03:58:18;;;;;;;27.07;18.73;;;14.90;99.90;;;;;;5048893;28;20287;-66
2023/06/17 04:00:43;;;;;;;26.57;19.40;;;14.90;99.90;;;;;;5034462;28;20132;-66
2023/06/17 04:03:11;;;;;;;24.63;17.83;;;14.90;99.90;;;;;;5064556;28;20075;-66
2023/06/17 04:05:37;;;;;;;27.40;18.43;;;15.00;99.90;;;;;;5050226;28;20045;-66
2023/06/17 04:08:04;;;;;;;28.90;20.20;;;15.00;99.90;;;;;;5027820;28;20298;-66
2023/06/17 04:10:30;;;;;;;26.77;19.47;;;15.00;99.90;;;;;;5051006;28;20283;-66
2023/06/17 04:12:56;;;;;;;30.53;20.50;;;15.10;99.90;;;;;;5050775;28;20284;-66
2023/06/17 04:15:21;;;;;;;28.30;19.00;;;15.10;99.90;;;;;;5050990;28;20280;-66
2023/06/17 04:17:47;;;;;;;22.73;17.53;;;15.20;99.90;;;;;;5046100;28;20512;-67
2023/06/17 04:20:13;;;;;;;25.80;18.63;;;15.20;99.90;;;;;;5045366;28;20511;-66
2023/06/17 04:22:39;;;;;;;27.40;19.63;;;15.20;99.90;;;;;;5050098;28;20037;-66
2023/06/17 04:25:07;;;;;;;23.90;17.23;;;15.20;99.90;;;;;;5068045;28;20504;-66
2023/06/17 04:27:33;;;;;;;23.90;18.17;;;15.30;99.90;;;;;;5042921;28;20387;-66
2023/06/17 04:29:59;;;;;;;25.93;18.60;;;15.30;99.90;;;;;;5048005;28;20392;-66
2023/06/17 04:32:26;;;;;;;21.93;17.27;;;15.30;99.90;;;;;;5049729;28;20440;-66
2023/06/17 04:34:53;;;;;;;25.30;17.43;;;15.40;99.90;;;;;;5032483;28;20279;-66
2023/06/17 04:37:20;;;;;;;26.10;16.93;;;15.40;99.90;;;;;;5030225;28;20374;-66
2023/06/17 04:39:46;;;;;;;25.30;17.87;;;15.40;99.90;;;;;;5032835;28;20358;-67
2023/06/17 04:42:18;;;;;;;22.27;17.10;;;15.40;99.90;;;;;;5049057;28;20287;-67
2023/06/17 04:44:48;;;;;;;24.87;17.77;;;15.40;99.90;;;;;;5049591;28;20837;-67
2023/06/17 04:47:16;;;;;;;28.40;17.83;;;15.50;99.90;;;;;;5065448;28;20295;-67
2023/06/17 04:49:44;;;;;;;23.47;16.30;;;15.60;99.90;;;;;;5047456;28;20383;-67
2023/06/17 04:52:13;;;;;;;21.43;15.53;;;15.60;99.90;;;;;;5049341;28;20325;-67
2023/06/17 04:54:39;;;;;;;21.37;15.67;;;15.60;99.90;;;;;;5032876;28;20299;-67
2023/06/17 04:57:06;;;;;;;19.67;15.40;;;15.70;99.90;;;;;;5049110;28;20303;-66
2023/06/17 04:59:32;;;;;;;20.57;14.87;;;15.70;99.80;;;;;;5045364;28;20280;-67
2023/06/17 05:01:58;;;;;;;22.33;15.13;;;15.70;99.70;;;;;;5048819;28;20291;-67
2023/06/17 05:04:23;;;;;;;20.27;15.87;;;15.80;99.10;;;;;;5047799;28;20353;-67
2023/06/17 05:06:49;;;;;;;24.97;15.40;;;15.80;98.80;;;;;;5048538;28;20056;-67
2023/06/17 05:09:15;;;;;;;20.47;14.40;;;15.80;98.50;;;;;;5046053;28;20044;-67
2023/06/17 05:11:42;;;;;;;20.57;16.13;;;15.90;98.50;;;;;;5048997;28;20933;-67
2023/06/17 05:14:08;;;;;;;22.43;15.83;;;15.90;98.40;;;;;;5032109;28;20052;-67
2023/06/17 05:16:34;;;;;;;21.27;15.03;;;16.00;98.30;;;;;;5032085;28;20283;-67
2023/06/17 05:19:00;;;;;;;22.97;16.10;;;16.10;98.30;;;;;;5047363;28;20458;-67
2023/06/17 05:21:26;;;;;;;18.93;15.87;;;16.20;97.80;;;;;;5024439;28;20041;-67
2023/06/17 05:23:52;;;;;;;22.67;16.20;;;16.20;97.40;;;;;;5049038;28;20812;-67
2023/06/17 05:26:17;;;;;;;24.83;16.57;;;16.30;97.10;;;;;;5048360;28;20049;-67
2023/06/17 05:28:43;;;;;;;22.60;16.33;;;16.30;97.10;;;;;;5043191;28;20059;-67
2023/06/17 05:31:10;;;;;;;22.30;17.47;;;16.30;97.10;;;;;;5047533;28;20045;-67
2023/06/17 05:33:36;;;;;;;25.00;17.30;;;16.30;97.20;;;;;;5047147;28;20036;-67
2023/06/17 05:36:02;;;;;;;28.70;19.17;;;16.30;97.00;;;;;;5030583;28;20282;-67
2023/06/17 05:38:28;;;;;;;27.07;18.67;;;16.30;96.30;;;;;;5049441;28;20344;-67
2023/06/17 05:40:53;;;;;;;23.03;16.73;;;16.40;96.30;;;;;;5064223;28;20275;-67
2023/06/17 05:43:19;;;;;;;24.83;18.17;;;16.50;95.90;;;;;;5032302;28;20133;-67
2023/06/17 05:45:45;;;;;;;23.17;18.30;;;16.50;95.50;;;;;;5048880;28;20036;-66
2023/06/17 05:48:12;;;;;;;27.20;17.57;;;16.60;95.40;;;;;;5031878;28;20190;-66
2023/06/17 05:50:38;;;;;;;23.07;17.07;;;16.70;95.30;;;;;;5047093;28;20064;-67
2023/06/17 05:53:04;;;;;;;23.17;17.40;;;16.80;94.40;;;;;;5065321;28;20279;-67
2023/06/17 05:55:30;;;;;;;25.30;17.00;;;16.80;94.00;;;;;;5032638;28;20314;-67
2023/06/17 05:57:55;;;;;;;21.00;16.53;;;16.90;93.50;;;;;;5049037;28;20048;-67
2023/06/17 06:00:22;;;;;;;24.83;16.00;;;16.90;92.90;;;;;;5049467;28;20033;-67
2023/06/17 06:02:48;;;;;;;18.33;14.93;;;17.10;92.90;;;;;;5047180;28;20049;-67
2023/06/17 06:05:14;;;;;;;18.03;14.17;;;17.30;91.90;;;;;;5048473;28;20379;-67
2023/06/17 06:07:41;;;;;;;21.20;13.80;;;17.50;90.30;;;;;;5047707;28;20886;-67
2023/06/17 06:10:08;;;;;;;23.33;13.10;;;17.60;89.60;;;;;;5048946;28;20051;-67
2023/06/17 06:12:34;;;;;;;20.83;13.10;;;17.70;88.90;;;;;;5047474;28;20283;-67
2023/06/17 06:15:00;;;;;;;17.10;13.07;;;17.80;88.40;;;;;;5047715;28;20783;-67
2023/06/17 06:17:26;;;;;;;21.67;13.60;;;17.90;88.20;;;;;;5048344;28;20288;-67
2023/06/17 06:19:52;;;;;;;18.53;15.00;;;18.00;87.70;;;;;;5048544;28;20123;-67
2023/06/17 06:22:18;;;;;;;19.07;12.67;;;18.00;87.50;;;;;;5044935;28;20092;-67
2023/06/17 06:24:43;;;;;;;15.47;12.40;;;18.10;87.40;;;;;;5048935;28;20033;-67
2023/06/17 06:27:09;;;;;;;17.97;12.43;;;18.30;87.60;;;;;;5048990;28;20341;-67
2023/06/17 06:29:35;;;;;;;16.57;11.67;;;18.60;86.20;;;;;;5048413;28;20049;-67
2023/06/17 06:32:02;;;;;;;17.63;12.57;;;19.00;85.00;;;;;;5048089;28;20045;-67
2023/06/17 06:34:28;;;;;;;16.63;11.67;;;19.40;83.60;;;;;;5048874;28;20540;-67
2023/06/17 06:36:56;;;;;;;16.30;12.07;;;19.90;81.50;;;;;;5047882;28;20283;-67
2023/06/17 06:39:22;;;;;;;15.60;11.00;;;20.50;77.40;;;;;;5048603;28;20399;-67
2023/06/17 06:41:48;;;;;;;15.67;12.00;;;20.70;76.40;;;;;;5048437;28;20290;-67
2023/06/17 06:44:15;;;;;;;17.17;11.03;;;20.70;75.30;;;;;;5029726;28;20279;-67
2023/06/17 06:46:41;;;;;;;16.80;10.53;;;20.60;76.20;;;;;;5048471;28;20408;-67
2023/06/17 06:49:07;;;;;;;15.37;10.83;;;20.90;75.50;;;;;;5048331;28;20302;-67
2023/06/17 06:51:33;;;;;;;14.90;10.37;;;21.40;73.90;;;;;;5048964;28;20509;-67
2023/06/17 06:53:59;;;;;;;17.50;10.70;;;21.30;73.00;;;;;;5047824;28;20378;-67
2023/06/17 06:56:24;;;;;;;13.53;11.20;;;20.90;73.20;;;;;;5047251;28;20534;-67
2023/06/17 06:58:50;;;;;;;13.67;10.23;;;20.60;74.60;;;;;;5047430;28;20041;-67
2023/06/17 07:01:16;;;;;;;18.00;10.60;;;20.90;74.90;;;;;;5047386;28;20583;-67
2023/06/17 07:03:42;;;;;;;12.53;10.20;;;21.20;73.70;;;;;;5046851;28;20076;-67
2023/06/17 07:06:08;;;;;;;14.00;10.03;;;21.60;72.50;;;;;;5052157;28;20420;-67
2023/06/17 07:08:34;;;;;;;14.07;9.80;;;21.70;70.80;;;;;;5047360;28;20068;-67
2023/06/17 07:11:00;;;;;;;13.80;9.77;;;21.80;70.80;;;;;;5047352;28;20195;-67
2023/06/17 07:13:26;;;;;;;15.83;9.67;;;21.70;71.60;;;;;;5045727;28;20037;-67
2023/06/17 07:15:52;;;;;;;15.63;10.13;;;21.70;71.10;;;;;;5046427;28;20099;-67
2023/06/17 07:18:17;;;;;;;11.90;8.93;;;21.50;70.90;;;;;;5034216;28;20444;-67
2023/06/17 07:20:43;;;;;;;14.37;9.17;;;21.40;71.60;;;;;;5047577;28;20044;-67
2023/06/17 07:23:09;;;;;;;18.57;9.93;;;21.30;71.50;;;;;;5046730;28;20094;-67
2023/06/17 07:25:36;;;;;;;12.17;8.97;;;21.20;71.50;;;;;;5047030;28;20094;-67
2023/06/17 07:28:02;;;;;;;11.00;9.47;;;21.10;72.10;;;;;;5046356;28;20083;-67
2023/06/17 07:30:29;;;;;;;12.37;9.17;;;21.00;72.50;;;;;;5047298;28;20091;-67
2023/06/17 07:32:55;;;;;;;12.07;8.97;;;21.10;72.80;;;;;;5030651;28;20582;-67
2023/06/17 07:35:21;;;;;;;17.43;10.47;;;21.10;72.50;;;;;;5044985;28;20135;-67
2023/06/17 07:37:50;;;;;;;16.63;9.53;;;21.30;72.20;;;;;;5046933;28;20115;-67
2023/06/17 07:40:15;;;;;;;15.20;9.37;;;21.50;73.40;;;;;;5047469;28;20090;-67
2023/06/17 07:42:44;;;;;;;17.60;10.03;;;21.70;72.00;;;;;;5047919;28;20048;-67
2023/06/17 07:45:10;;;;;;;12.57;8.67;;;21.70;70.30;;;;;;5029345;28;20048;-67
2023/06/17 07:47:37;;;;;;;12.30;9.60;;;21.70;70.90;;;;;;5030053;28;20107;-67
2023/06/17 07:50:04;;;;;;;11.43;9.53;;;21.60;71.20;;;;;;5046496;28;20045;-68
2023/06/17 07:52:31;;;;;;;12.03;8.87;;;21.50;71.10;;;;;;5047382;28;20033;-68
2023/06/17 07:54:57;;;;;;;14.97;9.43;;;21.50;71.00;;;;;;5047587;28;20052;-68
2023/06/17 07:57:23;;;;;;;12.17;9.10;;;21.50;71.40;;;;;;5048660;28;20424;-68
2023/06/17 07:59:49;;;;;;;11.57;8.80;;;21.50;71.50;;;;;;5028550;28;20037;-68
2023/06/17 08:02:15;;;;;;;14.77;9.10;;;21.70;71.40;;;;;;5044323;28;20087;-68
2023/06/17 08:04:41;;;;;;;13.43;8.53;;;21.80;70.50;;;;;;5044440;28;20088;-68
2023/06/17 08:07:07;;;;;;;15.47;9.17;;;21.90;70.30;;;;;;5045247;28;20076;-69
2023/06/17 08:09:33;;;;;;;11.37;8.97;;;21.90;69.80;;;;;;5026647;28;20034;-67
2023/06/17 08:11:58;;;;;;;16.23;8.87;;;22.00;70.00;;;;;;5044698;28;20045;-68
2023/06/17 08:14:24;;;;;;;12.80;8.50;;;22.10;69.20;;;;;;5044207;28;20043;-68
2023/06/17 08:16:50;;;;;;;14.53;9.17;;;22.20;69.20;;;;;;5039986;28;20041;-68
2023/06/17 08:19:16;;;;;;;13.63;8.83;;;22.30;68.90;;;;;;5030881;28;20051;-68
2023/06/17 08:21:42;;;;;;;13.97;8.80;;;22.30;68.40;;;;;;5047651;28;20041;-68
2023/06/17 08:24:21;;;;;;;14.53;8.63;;;22.30;68.30;;;;;;5047732;28;20049;-69
2023/06/17 08:26:48;;;;;;;14.03;8.27;;;22.20;68.50;;;;;;5049251;28;20037;-68
2023/06/17 08:29:15;;;;;;;13.53;9.50;;;22.10;68.50;;;;;;5025309;28;20107;-68
2023/06/17 08:31:45;;;;;;;12.87;9.47;;;22.10;68.30;;;;;;5032556;28;20068;-68
2023/06/17 08:34:12;;;;;;;13.80;8.80;;;22.10;68.90;;;;;;5044571;28;20036;-68
2023/06/17 08:36:41;;;;;;;12.67;9.27;;;22.10;69.10;;;;;;5047983;28;20123;-68
2023/06/17 08:39:08;;;;;;;14.77;9.33;;;22.10;69.10;;;;;;5047533;28;20107;-68
2023/06/17 08:41:39;;;;;;;13.23;8.77;;;22.20;69.90;;;;;;5052104;28;20052;-67
2023/06/17 08:44:06;;;;;;;11.93;8.93;;;22.30;68.70;;;;;;5052885;28;20135;-68
2023/06/17 08:46:32;;;;;;;12.93;8.27;;;22.40;68.80;;;;;;5050480;28;20969;-68
2023/06/17 08:48:59;;;;;;;13.87;9.23;;;22.60;68.70;;;;;;5035352;28;20048;-68
2023/06/17 08:51:25;;;;;;;14.17;8.27;;;22.70;68.20;;;;;;5044450;28;20029;-68
2023/06/17 08:53:52;;;;;;;13.77;8.53;;;22.80;68.10;;;;;;5051589;28;20143;-68
2023/06/17 08:56:18;;;;;;;13.47;8.77;;;22.90;67.20;;;;;;5050887;28;20049;-68
2023/06/17 08:58:44;;;;;;;13.93;8.73;;;22.90;66.90;;;;;;5048983;28;20037;-69
2023/06/17 09:01:11;;;;;;;12.87;8.97;;;22.80;66.60;;;;;;5044915;28;20049;-69
2023/06/17 09:03:39;;;;;;;12.93;8.77;;;22.80;66.20;;;;;;5052309;28;20131;-68
2023/06/17 09:06:27;;;;;;;10.93;8.13;;;22.80;66.10;;;;;;5034769;28;20048;-69
2023/06/17 09:08:57;;;;;;;14.97;8.97;;;22.70;65.80;;;;;;5049143;28;20497;-68
2023/06/17 09:11:31;;;;;;;14.60;9.23;;;22.60;66.50;;;;;;5027053;28;20102;-68
2023/06/17 09:13:59;;;;;;;15.80;9.40;;;22.70;66.10;;;;;;5050084;28;20036;-69
2023/06/17 09:16:29;;;;;;;14.40;8.47;;;22.70;66.40;;;;;;5048086;28;20033;-68
2023/06/17 09:19:00;;;;;;;11.63;8.90;;;22.90;66.60;;;;;;5049876;28;20622;-67
2023/06/17 09:21:27;;;;;;;17.33;9.30;;;23.10;66.30;;;;;;5051532;28;20552;-68
2023/06/17 09:24:01;;;;;;;14.43;9.30;;;23.30;66.60;;;;;;5039178;28;20059;-68
2023/06/17 09:26:30;;;;;;;16.95;8.68;;;23.50;66.30;;;;;;5045622;28;20040;-68
2023/06/17 09:29:04;;;;;;;12.57;8.80;;;23.50;65.40;;;;;;5049753;28;20088;-68
2023/06/17 09:31:31;;;;;;;11.25;8.25;;;23.40;65.50;;;;;;5030099;28;20120;-68
2023/06/17 09:33:58;;;;;;;14.80;9.00;;;23.50;65.30;;;;;;5050184;28;20072;-69
2023/06/17 09:36:25;;;;;;;11.07;7.87;;;23.50;64.60;;;;;;5050019;28;20033;-68
2023/06/17 09:38:51;;;;;;;10.47;7.17;;;23.50;63.60;;;;;;5050464;28;20120;-68
2023/06/17 09:41:18;;;;;;;11.23;7.77;;;23.30;62.40;;;;;;5032881;28;20049;-68
2023/06/17 09:43:54;;;;;;;14.33;7.90;;;23.30;63.50;;;;;;5050394;28;20049;-68
2023/06/17 09:46:35;;;;;;;11.90;7.43;;;23.30;64.50;;;;;;5050757;28;20044;-67
2023/06/17 09:49:01;;;;;;;13.53;8.67;;;23.50;64.60;;;;;;5062116;28;20584;-68
2023/06/17 09:51:37;;;;;;;10.93;8.27;;;23.70;64.20;;;;;;5050632;28;20045;-68
2023/06/17 09:54:04;;;;;;;12.17;7.80;;;23.80;63.60;;;;;;5050118;28;20516;-68
2023/06/17 09:56:33;;;;;;;13.47;7.63;;;23.90;64.10;;;;;;5050568;28;20041;-67
2023/06/17 09:59:00;;;;;;;11.10;7.60;;;24.00;63.80;;;;;;5048038;28;20103;-68
2023/06/17 10:01:30;;;;;;;10.87;8.07;;;24.20;63.20;;;;;;5033066;28;20033;-67
2023/06/17 10:04:02;;;;;;;12.07;7.50;;;24.30;62.70;;;;;;5043680;28;20052;-68
2023/06/17 10:06:37;;;;;;;15.47;7.50;;;24.30;62.80;;;;;;5048320;28;20084;-68
2023/06/17 10:09:08;;;;;;;12.90;8.43;;;24.30;62.90;;;;;;5046244;28;20037;-69
2023/06/17 10:11:35;;;;;;;14.60;8.67;;;24.40;63.00;;;;;;5046616;28;20045;-69
2023/06/17 10:14:39;;;;;;;13.80;8.90;;;24.40;61.90;;;;;;5043268;28;20031;-66
2023/06/17 10:17:09;;;;;;;10.57;7.83;;;24.50;61.90;;;;;;5016903;28;20052;-66
2023/06/17 10:19:37;;;;;;;15.33;8.23;;;24.50;61.80;;;;;;5044584;28;20073;-66
2023/06/17 10:22:05;;;;;;;15.37;8.93;;;24.60;61.30;;;;;;5048522;28;20049;-66
2023/06/17 10:24:32;;;;;;;14.13;8.63;;;24.70;61.40;;;;;;5061393;28;20052;-66
2023/06/17 10:27:03;;;;;;;13.07;7.77;;;24.70;61.20;;;;;;5048084;28;20048;-66
2023/06/17 10:29:29;;;;;;;13.03;8.03;;;24.70;61.00;;;;;;5046227;28;20057;-66
2023/06/17 10:31:55;;;;;;;12.10;8.17;;;24.80;61.20;;;;;;5048313;28;20416;-66
2023/06/17 10:34:21;;;;;;;11.93;8.30;;;25.00;61.30;;;;;;5048700;28;20045;-66
2023/06/17 10:37:09;;;;;;;13.53;8.03;;;25.10;60.50;;;;;;5049011;28;20451;-66
2023/06/17 10:39:34;;;;;;;11.43;7.83;;;25.30;58.90;;;;;;5047517;28;20103;-66
2023/06/17 10:42:00;;;;;;;10.97;8.03;;;25.20;59.00;;;;;;5047763;28;20076;-66
2023/06/17 10:44:32;;;;;;;9.90;7.43;;;25.10;58.90;;;;;;5048223;28;20045;-66
2023/06/17 10:46:59;;;;;;;9.80;7.30;;;25.00;59.90;;;;;;5046286;28;20044;-66
2023/06/17 10:49:24;;;;;;;9.07;6.80;;;25.00;60.00;;;;;;5031265;28;20489;-66
2023/06/17 10:51:55;;;;;;;11.57;6.73;;;25.20;60.50;;;;;;5029423;28;20035;-66
2023/06/17 10:54:28;;;;;;;11.07;7.40;;;25.40;59.30;;;;;;5063104;28;20033;-66
2023/06/17 10:56:54;;;;;;;12.70;6.90;;;25.60;58.00;;;;;;5039467;28;20056;-66
2023/06/17 10:59:29;;;;;;;13.23;7.33;;;25.60;57.90;;;;;;5046111;28;20055;-66
2023/06/17 11:02:03;;;;;;;13.20;7.03;;;25.60;57.10;;;;;;5044707;28;20552;-66
2023/06/17 11:04:36;;;;;;;12.23;6.82;;;25.50;56.80;;;;;;5044777;28;20045;-66
2023/06/17 11:07:04;;;;;;;12.07;8.32;;;25.50;57.60;;;;;;5053526;28;20471;-66
2023/06/17 11:09:32;;;;;;;10.17;7.20;;;25.70;58.00;;;;;;5044981;28;20041;-66
2023/06/17 11:12:00;;;;;;;9.80;7.17;;;25.70;57.30;;;;;;5039249;28;20041;-66
2023/06/17 11:14:30;;;;;;;11.37;7.10;;;25.60;57.40;;;;;;5043509;28;20041;-66
2023/06/17 11:16:57;;;;;;;12.07;7.30;;;25.60;56.90;;;;;;5038240;28;20043;-66
2023/06/17 11:19:23;;;;;;;10.90;6.83;;;25.50;57.00;;;;;;5062616;28;20115;-66
2023/06/17 11:22:03;;;;;;;10.57;7.10;;;25.70;57.10;;;;;;5060738;28;20151;-66
2023/06/17 11:24:30;;;;;;;9.93;6.83;;;25.90;57.20;;;;;;5046052;28;20037;-66
2023/06/17 11:26:57;;;;;;;11.73;8.00;;;26.00;57.00;;;;;;5059476;28;20056;-66
2023/06/17 11:29:27;;;;;;;14.53;9.63;;;26.10;56.70;;;;;;5043407;28;20511;-66
2023/06/17 11:32:00;;;;;;;12.13;8.57;;;26.10;56.80;;;;;;5042803;28;20045;-66
2023/06/17 11:34:31;;;;;;;10.20;7.47;;;26.10;56.80;;;;;;5047158;28;20045;-66
2023/06/17 11:36:58;;;;;;;12.53;7.47;;;26.20;56.80;;;;;;5065628;28;20044;-66
2023/06/17 11:39:27;;;;;;;14.27;7.47;;;26.30;55.40;;;;;;5048172;28;20413;-66
2023/06/17 11:41:59;;;;;;;10.80;6.97;;;26.30;55.00;;;;;;5060496;28;20057;-66
2023/06/17 11:44:25;;;;;;;10.40;6.93;;;26.30;55.20;;;;;;5047271;28;20080;-66
2023/06/17 11:46:55;;;;;;;11.63;7.80;;;26.40;55.00;;;;;;5045602;28;20083;-66
2023/06/17 11:49:25;;;;;;;12.37;7.30;;;26.60;54.80;;;;;;5042221;28;20167;-66
2023/06/17 11:51:51;;;;;;;14.13;7.83;;;26.70;53.60;;;;;;5029762;28;20056;-69
2023/06/17 11:54:25;;;;;;;11.33;7.90;;;26.70;53.80;;;;;;5046021;28;20048;-69
2023/06/17 11:56:53;;;;;;;10.63;7.60;;;26.50;53.20;;;;;;5061275;28;20056;-69
2023/06/17 11:59:21;;;;;;;11.80;7.73;;;26.50;54.50;;;;;;5046256;28;20033;-69
2023/06/17 12:01:47;;;;;;;10.63;7.97;;;26.50;53.90;;;;;;5042710;28;20044;-66
2023/06/17 12:04:14;;;;;;;11.30;7.00;;;26.40;52.70;;;;;;5045049;28;20044;-66
2023/06/17 12:06:42;;;;;;;11.20;8.30;;;26.30;53.90;;;;;;5048667;28;20435;-66
2023/06/17 12:09:10;;;;;;;9.87;7.27;;;26.30;53.20;;;;;;5049882;28;20045;-68
2023/06/17 12:11:39;;;;;;;10.80;7.50;;;26.30;54.00;;;;;;5051310;28;20056;-68
2023/06/17 12:14:10;;;;;;;11.60;8.47;;;26.50;53.90;;;;;;5049336;28;20041;-68
2023/06/17 12:16:39;;;;;;;11.73;7.83;;;26.60;53.60;;;;;;5055309;28;20033;-69
2023/06/17 12:19:12;;;;;;;10.73;6.97;;;26.70;52.90;;;;;;5053705;28;20080;-68
2023/06/17 12:21:39;;;;;;;12.53;7.17;;;26.70;52.80;;;;;;5054594;28;20036;-69
2023/06/17 12:24:05;;;;;;;12.07;7.60;;;26.60;52.50;;;;;;5054218;28;20037;-69
2023/06/17 12:26:31;;;;;;;13.10;7.17;;;26.60;52.20;;;;;;5051326;28;20442;-68
2023/06/17 12:28:58;;;;;;;10.33;7.60;;;26.60;52.80;;;;;;5052725;28;20098;-68
2023/06/17 12:31:25;;;;;;;11.07;7.10;;;26.40;51.60;;;;;;5050579;28;20127;-68
2023/06/17 12:33:51;;;;;;;9.80;7.57;;;26.40;51.80;;;;;;5053728;28;20033;-69
2023/06/17 12:36:17;;;;;;;11.27;6.70;;;26.40;51.70;;;;;;5054337;28;20047;-69